PWSweather.com
Personal Weather Stations
Station Observations
PENICUIKWS
PenicuikGB

PenicuikGB

Lat: 55.830932, Lon: -3.224533000000065

Elevation: 166

Station Type: Fine Offset

http://weather.penicuik.org

High Low Average
Temperature 65.5°F18.6°C 43.0°F6.1°C 52.0°F11.1°C
Dew Point 53.9°F12.2°C 42.5°F5.8°C 49.0°F9.4°C
Winds 5.1 mph 8.2 kmh Calm Calm 2.0 mph WSW3.2 kmh WSW
Wind Gusts 8.3 mph13.4 kmh 0.7 mph1.1 kmh 4.0 mph6.4 kmh
Humidity 98% 59% 90%
Pressure 30.04 in1017.3 mb 29.86 in1011.2 mb -
Precipitation 0.33 in8.4 mm - -
Hour Temp Dew Point Humidity Winds Wind Gusts Pressure Precip Precip Rate Daily Precip Total
12:00 AM 51.3°F10.7°C 50.2°F10.1°C 96% 2.8 mph S4.5 kmh S 4.5 mph7.2 kmh 29.97 in1014.9 mb 0.02 in0.5 mm 0.00 in0.0 mm 0.02 in0.5 mm
12:15 AM 51.3°F10.7°C 50.2°F10.1°C 96% 2.3 mph SW3.7 kmh SW 3.1 mph5.0 kmh 29.96 in1014.6 mb 0.01 in0.3 mm 0.00 in0.0 mm 0.02 in0.5 mm
12:30 AM 50.4°F10.2°C 49.3°F9.6°C 96% 1.2 mph W1.9 kmh W 2.2 mph3.5 kmh 29.96 in1014.6 mb 0.01 in0.3 mm 0.00 in0.0 mm 0.02 in0.5 mm
12:45 AM 50.4°F10.2°C 49.3°F9.6°C 96% 0.9 mph NW1.4 kmh NW 2.2 mph3.5 kmh 29.95 in1014.2 mb 0.00 in0.0 mm 0.00 in0.0 mm 0.02 in0.5 mm
01:00 AM 51.3°F10.7°C 50.2°F10.1°C 96% 1.9 mph ESE3.1 kmh ESE 3.8 mph6.1 kmh 29.94 in1013.9 mb 0.00 in0.0 mm 0.00 in0.0 mm 0.02 in0.5 mm
01:30 AM 51.3°F10.7°C 50.4°F10.2°C 97% 3.0 mph SW4.8 kmh SW 6.0 mph9.7 kmh 29.93 in1013.5 mb 0.00 in0.0 mm 0.00 in0.0 mm 0.02 in0.5 mm
01:45 AM 51.3°F10.7°C 50.4°F10.2°C 97% 2.0 mph W3.2 kmh W 3.1 mph5.0 kmh 29.93 in1013.5 mb 0.00 in0.0 mm 0.00 in0.0 mm 0.02 in0.5 mm
02:15 AM 50.4°F10.2°C 49.3°F9.6°C 96% 1.9 mph NW3.1 kmh NW 3.8 mph6.1 kmh 29.92 in1013.2 mb 0.00 in0.0 mm 0.00 in0.0 mm 0.02 in0.5 mm
02:30 AM 50.2°F10.1°C 49.1°F9.5°C 96% 1.6 mph N2.6 kmh N 2.2 mph3.5 kmh 29.91 in1012.9 mb 0.00 in0.0 mm 0.00 in0.0 mm 0.02 in0.5 mm
02:45 AM 50.0°F10.0°C 48.9°F9.4°C 96% 2.1 mph NE3.4 kmh NE 3.8 mph6.1 kmh 29.91 in1012.9 mb 0.00 in0.0 mm 0.00 in0.0 mm 0.02 in0.5 mm
03:00 AM 50.4°F10.2°C 49.3°F9.6°C 96% 1.7 mph N2.7 kmh N 3.1 mph5.0 kmh 29.91 in1012.9 mb 0.00 in0.0 mm 0.00 in0.0 mm 0.02 in0.5 mm
03:30 AM 50.4°F10.2°C 49.3°F9.6°C 96% 1.6 mph NNW2.6 kmh NNW 2.2 mph3.5 kmh 29.91 in1012.9 mb 0.00 in0.0 mm 0.00 in0.0 mm 0.02 in0.5 mm
03:45 AM 50.4°F10.2°C 49.3°F9.6°C 96% 2.5 mph SSW4.0 kmh SSW 3.8 mph6.1 kmh 29.90 in1012.5 mb 0.00 in0.0 mm 0.00 in0.0 mm 0.02 in0.5 mm
04:00 AM 51.3°F10.7°C 49.9°F9.9°C 95% 2.3 mph WNW3.7 kmh WNW 3.8 mph6.1 kmh 29.89 in1012.2 mb 0.00 in0.0 mm 0.00 in0.0 mm 0.02 in0.5 mm
04:30 AM 51.3°F10.7°C 49.9°F9.9°C 95% 3.2 mph WNW5.1 kmh WNW 4.5 mph7.2 kmh 29.88 in1011.9 mb 0.01 in0.3 mm 0.02 in0.5 mm 0.04 in1.0 mm
04:45 AM 51.3°F10.7°C 49.6°F9.8°C 94% 2.0 mph WNW3.2 kmh WNW 3.8 mph6.1 kmh 29.88 in1011.9 mb 0.01 in0.3 mm 0.00 in0.0 mm 0.04 in1.0 mm
05:00 AM 51.3°F10.7°C 49.6°F9.8°C 94% 2.6 mph NNW4.2 kmh NNW 6.0 mph9.7 kmh 29.88 in1011.9 mb 0.01 in0.3 mm 0.00 in0.0 mm 0.04 in1.0 mm
05:15 AM 51.4°F10.8°C 50.1°F10.1°C 95% 3.1 mph SW5.0 kmh SW 6.0 mph9.7 kmh 29.87 in1011.5 mb 0.01 in0.3 mm 0.00 in0.0 mm 0.04 in1.0 mm
05:16 AM 51.4°F10.8°C 50.1°F10.1°C 95% 3.1 mph W5.0 kmh W 6.0 mph9.7 kmh 29.87 in1011.5 mb 0.01 in0.3 mm 0.00 in0.0 mm 0.04 in1.0 mm
05:30 AM 51.6°F10.9°C 50.2°F10.1°C 95% 2.3 mph S3.7 kmh S 5.4 mph8.7 kmh 29.87 in1011.5 mb 0.00 in0.0 mm 0.00 in0.0 mm 0.04 in1.0 mm
05:45 AM 51.6°F10.9°C 50.0°F10.0°C 94% 2.2 mph W3.5 kmh W 3.8 mph6.1 kmh 29.87 in1011.5 mb 0.00 in0.0 mm 0.00 in0.0 mm 0.04 in1.0 mm
06:00 AM 51.8°F11.0°C 49.8°F9.9°C 93% 2.7 mph NNW4.3 kmh NNW 5.4 mph8.7 kmh 29.87 in1011.5 mb 0.00 in0.0 mm 0.00 in0.0 mm 0.04 in1.0 mm
06:15 AM 52.3°F11.3°C 50.4°F10.2°C 93% 3.3 mph WNW5.3 kmh WNW 7.6 mph12.2 kmh 29.87 in1011.5 mb 0.00 in0.0 mm 0.00 in0.0 mm 0.04 in1.0 mm
06:16 AM 52.3°F11.3°C 50.4°F10.2°C 93% 3.1 mph WSW5.0 kmh WSW 5.4 mph8.7 kmh 29.87 in1011.5 mb 0.00 in0.0 mm 0.00 in0.0 mm 0.04 in1.0 mm
06:28 AM 52.5°F11.4°C 50.3°F10.2°C 92% 2.8 mph NW4.5 kmh NW 4.0 mph6.4 kmh 29.86 in1011.2 mb 0.00 in0.0 mm 0.00 in0.0 mm 0.04 in1.0 mm
06:30 AM 52.5°F11.4°C 50.3°F10.2°C 92% 2.3 mph NW3.7 kmh NW 4.0 mph6.4 kmh 29.86 in1011.2 mb 0.00 in0.0 mm 0.00 in0.0 mm 0.04 in1.0 mm
06:45 AM 52.5°F11.4°C 50.3°F10.2°C 92% 2.7 mph N4.3 kmh N 6.0 mph9.7 kmh 29.86 in1011.2 mb 0.00 in0.0 mm 0.00 in0.0 mm 0.04 in1.0 mm
06:46 AM 52.5°F11.4°C 50.3°F10.2°C 92% 2.8 mph NNE4.5 kmh NNE 6.0 mph9.7 kmh 29.86 in1011.2 mb 0.00 in0.0 mm 0.00 in0.0 mm 0.04 in1.0 mm
07:00 AM 52.5°F11.4°C 50.6°F10.3°C 93% 2.6 mph NW4.2 kmh NW 4.5 mph7.2 kmh 29.86 in1011.2 mb 0.00 in0.0 mm 0.00 in0.0 mm 0.04 in1.0 mm
07:01 AM 52.5°F11.4°C 50.6°F10.3°C 93% 2.7 mph NNW4.3 kmh NNW 4.5 mph7.2 kmh 29.86 in1011.2 mb 0.00 in0.0 mm 0.00 in0.0 mm 0.04 in1.0 mm
07:15 AM 52.7°F11.5°C 50.7°F10.4°C 93% 3.4 mph N5.5 kmh N 6.0 mph9.7 kmh 29.87 in1011.5 mb 0.01 in0.3 mm 0.04 in1.0 mm 0.05 in1.3 mm
07:16 AM 52.7°F11.5°C 50.7°F10.4°C 93% 3.4 mph NNE5.5 kmh NNE 6.0 mph9.7 kmh 29.87 in1011.5 mb 0.01 in0.3 mm 0.00 in0.0 mm 0.05 in1.3 mm
07:30 AM 52.7°F11.5°C 50.7°F10.4°C 93% 3.2 mph NNW5.1 kmh NNW 5.4 mph8.7 kmh 29.87 in1011.5 mb 0.01 in0.3 mm 0.00 in0.0 mm 0.05 in1.3 mm
07:45 AM 52.7°F11.5°C 50.7°F10.4°C 93% 3.4 mph WNW5.5 kmh WNW 6.9 mph11.1 kmh 29.87 in1011.5 mb 0.01 in0.3 mm 0.00 in0.0 mm 0.05 in1.3 mm
08:00 AM 52.5°F11.4°C 50.6°F10.3°C 93% 2.6 mph SW4.2 kmh SW 4.5 mph7.2 kmh 29.88 in1011.9 mb 0.01 in0.3 mm 0.00 in0.0 mm 0.05 in1.3 mm
08:15 AM 52.7°F11.5°C 50.7°F10.4°C 93% 3.0 mph NW4.8 kmh NW 6.0 mph9.7 kmh 29.89 in1012.2 mb 0.00 in0.0 mm 0.00 in0.0 mm 0.05 in1.3 mm
08:45 AM 54.7°F12.6°C 51.5°F10.8°C 89% 3.0 mph NW4.8 kmh NW 4.5 mph7.2 kmh 29.89 in1012.2 mb 0.00 in0.0 mm 0.00 in0.0 mm 0.05 in1.3 mm
09:00 AM 55.2°F12.9°C 51.7°F10.9°C 88% 2.5 mph WSW4.0 kmh WSW 3.8 mph6.1 kmh 29.89 in1012.2 mb 0.00 in0.0 mm 0.00 in0.0 mm 0.05 in1.3 mm
09:15 AM 54.9°F12.7°C 51.4°F10.8°C 88% 2.7 mph SSE4.3 kmh SSE 5.4 mph8.7 kmh 29.89 in1012.2 mb 0.00 in0.0 mm 0.00 in0.0 mm 0.05 in1.3 mm
09:30 AM 55.2°F12.9°C 51.7°F10.9°C 88% 2.4 mph WSW3.9 kmh WSW 3.1 mph5.0 kmh 29.89 in1012.2 mb 0.00 in0.0 mm 0.00 in0.0 mm 0.05 in1.3 mm
10:00 AM 56.8°F13.8°C 51.7°F10.9°C 83% 2.9 mph W4.7 kmh W 5.4 mph8.7 kmh 29.90 in1012.5 mb 0.01 in0.3 mm 0.02 in0.5 mm 0.06 in1.5 mm
10:15 AM 61.2°F16.2°C 53.9°F12.2°C 77% 2.7 mph SSW4.3 kmh SSW 5.4 mph8.7 kmh 29.90 in1012.5 mb 0.01 in0.3 mm 0.00 in0.0 mm 0.06 in1.5 mm
10:30 AM 61.7°F16.5°C 51.8°F11.0°C 70% 3.8 mph W6.1 kmh W 6.9 mph11.1 kmh 29.90 in1012.5 mb 0.01 in0.3 mm 0.00 in0.0 mm 0.06 in1.5 mm
11:00 AM 56.1°F13.4°C 50.7°F10.4°C 82% 3.1 mph S5.0 kmh S 8.3 mph13.4 kmh 29.90 in1012.5 mb 0.01 in0.3 mm 0.00 in0.0 mm 0.07 in1.8 mm
11:15 AM 59.5°F15.3°C 53.7°F12.1°C 81% 4.0 mph SSE6.4 kmh SSE 7.6 mph12.2 kmh 29.91 in1012.9 mb 0.01 in0.3 mm 0.00 in0.0 mm 0.07 in1.8 mm
11:45 AM 65.5°F18.6°C 50.8°F10.4°C 59% 5.1 mph SW8.2 kmh SW 8.3 mph13.4 kmh 29.91 in1012.9 mb 0.01 in0.3 mm 0.00 in0.0 mm 0.07 in1.8 mm
12:00 PM 65.1°F18.4°C 50.5°F10.3°C 59% 4.2 mph SSW6.8 kmh SSW 6.0 mph9.7 kmh 29.91 in1012.9 mb 0.00 in0.0 mm 0.00 in0.0 mm 0.07 in1.8 mm
12:15 PM 65.3°F18.5°C 50.6°F10.3°C 59% 4.8 mph S7.7 kmh S 6.9 mph11.1 kmh 29.90 in1012.5 mb 0.00 in0.0 mm 0.00 in0.0 mm 0.07 in1.8 mm
12:30 PM 64.2°F17.9°C 49.6°F9.8°C 59% 5.1 mph WSW8.2 kmh WSW 6.9 mph11.1 kmh 29.90 in1012.5 mb 0.00 in0.0 mm 0.00 in0.0 mm 0.07 in1.8 mm
12:45 PM 63.7°F17.6°C 50.0°F10.0°C 61% 4.1 mph WSW6.6 kmh WSW 6.9 mph11.1 kmh 29.89 in1012.2 mb 0.00 in0.0 mm 0.00 in0.0 mm 0.07 in1.8 mm
01:00 PM 62.2°F16.8°C 48.2°F9.0°C 60% 4.7 mph W7.6 kmh W 6.9 mph11.1 kmh 29.89 in1012.2 mb 0.00 in0.0 mm 0.00 in0.0 mm 0.07 in1.8 mm
01:30 PM 61.3°F16.3°C 50.7°F10.4°C 68% 2.1 mph S3.4 kmh S 3.1 mph5.0 kmh 29.89 in1012.2 mb 0.00 in0.0 mm 0.00 in0.0 mm 0.07 in1.8 mm
01:45 PM 61.2°F16.2°C 48.9°F9.4°C 64% 4.6 mph W7.4 kmh W 6.9 mph11.1 kmh 29.90 in1012.5 mb 0.00 in0.0 mm 0.00 in0.0 mm 0.07 in1.8 mm
02:00 PM 57.0°F13.9°C 50.2°F10.1°C 78% 2.2 mph N3.5 kmh N 3.1 mph5.0 kmh 29.91 in1012.9 mb 0.05 in1.3 mm 0.07 in1.8 mm 0.12 in3.0 mm
02:15 PM 53.1°F11.7°C 48.7°F9.3°C 85% 2.4 mph ESE3.9 kmh ESE 3.1 mph5.0 kmh 29.91 in1012.9 mb 0.13 in3.3 mm 0.32 in8.1 mm 0.20 in5.1 mm
02:30 PM 51.4°F10.8°C 48.6°F9.2°C 90% 2.5 mph S4.0 kmh S 3.8 mph6.1 kmh 29.91 in1012.9 mb 0.15 in3.8 mm 0.08 in2.0 mm 0.22 in5.6 mm
02:45 PM 51.4°F10.8°C 49.2°F9.6°C 92% 2.7 mph SSW4.3 kmh SSW 3.8 mph6.1 kmh 29.92 in1013.2 mb 0.22 in5.6 mm 0.28 in7.1 mm 0.30 in7.6 mm
03:00 PM 51.8°F11.0°C 49.8°F9.9°C 93% 1.2 mph SW1.9 kmh SW 3.1 mph5.0 kmh 29.91 in1012.9 mb 0.18 in4.6 mm 0.00 in0.0 mm 0.31 in7.9 mm
03:15 PM 52.3°F11.3°C 50.4°F10.2°C 93% 1.4 mph S2.3 kmh S 2.2 mph3.5 kmh 29.92 in1013.2 mb 0.11 in2.8 mm 0.00 in0.0 mm 0.31 in7.9 mm
03:30 PM 52.7°F11.5°C 51.0°F10.6°C 94% 1.3 mph SW2.1 kmh SW 3.1 mph5.0 kmh 29.92 in1013.2 mb 0.07 in1.8 mm 0.00 in0.0 mm 0.31 in7.9 mm
03:45 PM 53.1°F11.7°C 51.1°F10.6°C 93% 3.0 mph WSW4.8 kmh WSW 5.4 mph8.7 kmh 29.93 in1013.5 mb 0.01 in0.3 mm 0.00 in0.0 mm 0.31 in7.9 mm
04:00 PM 53.4°F11.9°C 51.2°F10.7°C 92% 2.1 mph W3.4 kmh W 3.8 mph6.1 kmh 29.93 in1013.5 mb 0.00 in0.0 mm 0.00 in0.0 mm 0.31 in7.9 mm
04:30 PM 51.8°F11.0°C 49.3°F9.6°C 91% 2.3 mph W3.7 kmh W 3.8 mph6.1 kmh 29.93 in1013.5 mb 0.01 in0.3 mm 0.02 in0.5 mm 0.32 in8.1 mm
04:45 PM 52.5°F11.4°C 50.3°F10.2°C 92% 1.9 mph WSW3.1 kmh WSW 3.8 mph6.1 kmh 29.93 in1013.5 mb 0.01 in0.3 mm 0.00 in0.0 mm 0.32 in8.1 mm
05:00 PM 52.0°F11.1°C 49.7°F9.8°C 92% 2.1 mph S3.4 kmh S 3.8 mph6.1 kmh 29.93 in1013.5 mb 0.01 in0.3 mm 0.00 in0.0 mm 0.32 in8.1 mm
05:30 PM 51.6°F10.9°C 49.7°F9.8°C 93% 1.8 mph SW2.9 kmh SW 4.5 mph7.2 kmh 29.95 in1014.2 mb 0.01 in0.3 mm 0.00 in0.0 mm 0.33 in8.4 mm
05:45 PM 51.3°F10.7°C 49.3°F9.6°C 93% 2.0 mph S3.2 kmh S 3.8 mph6.1 kmh 29.96 in1014.6 mb 0.01 in0.3 mm 0.00 in0.0 mm 0.33 in8.4 mm
06:00 PM 50.4°F10.2°C 48.4°F9.1°C 93% 1.4 mph S2.3 kmh S 3.1 mph5.0 kmh 29.96 in1014.6 mb 0.01 in0.3 mm 0.00 in0.0 mm 0.33 in8.4 mm
06:15 PM 50.4°F10.2°C 48.4°F9.1°C 93% 1.2 mph SW1.9 kmh SW 2.2 mph3.5 kmh 29.96 in1014.6 mb 0.00 in0.0 mm 0.00 in0.0 mm 0.33 in8.4 mm
06:30 PM 50.2°F10.1°C 48.2°F9.0°C 93% 0.6 mph WSW1.0 kmh WSW 2.2 mph3.5 kmh 29.96 in1014.6 mb 0.00 in0.0 mm 0.00 in0.0 mm 0.33 in8.4 mm
06:45 PM 49.8°F9.9°C 48.2°F9.0°C 94% 1.5 mph NW2.4 kmh NW 1.6 mph2.6 kmh 29.97 in1014.9 mb 0.00 in0.0 mm 0.00 in0.0 mm 0.33 in8.4 mm
07:00 PM 49.3°F9.6°C 47.6°F8.7°C 94% 0.3 mph ESE0.5 kmh ESE 1.6 mph2.6 kmh 29.96 in1014.6 mb 0.00 in0.0 mm 0.00 in0.0 mm 0.33 in8.4 mm
07:15 PM 48.4°F9.1°C 47.0°F8.3°C 95% 1.1 mph SW1.8 kmh SW 1.6 mph2.6 kmh 29.97 in1014.9 mb 0.00 in0.0 mm 0.00 in0.0 mm 0.33 in8.4 mm
07:30 PM 48.0°F8.9°C 46.9°F8.3°C 96% 1.2 mph S1.9 kmh S 3.1 mph5.0 kmh 29.98 in1015.2 mb 0.00 in0.0 mm 0.00 in0.0 mm 0.33 in8.4 mm
08:00 PM 47.8°F8.8°C 47.0°F8.3°C 97% 0.3 mph W0.5 kmh W 1.6 mph2.6 kmh 29.99 in1015.6 mb 0.00 in0.0 mm 0.00 in0.0 mm 0.33 in8.4 mm
08:01 PM 47.7°F8.7°C 46.9°F8.3°C 97% 0.3 mph W0.5 kmh W 1.6 mph2.6 kmh 29.99 in1015.6 mb 0.00 in0.0 mm 0.00 in0.0 mm 0.33 in8.4 mm
08:15 PM 46.8°F8.2°C 46.0°F7.8°C 97% Calm Calm 0.7 mph1.1 kmh 29.99 in1015.6 mb 0.00 in0.0 mm 0.00 in0.0 mm 0.33 in8.4 mm
08:30 PM 46.2°F7.9°C 45.4°F7.4°C 97% 0.6 mph WSW1.0 kmh WSW 1.6 mph2.6 kmh 30.00 in1015.9 mb 0.00 in0.0 mm 0.00 in0.0 mm 0.33 in8.4 mm
08:45 PM 45.7°F7.6°C 44.9°F7.2°C 97% 0.5 mph WNW0.8 kmh WNW 1.6 mph2.6 kmh 30.00 in1015.9 mb 0.00 in0.0 mm 0.00 in0.0 mm 0.33 in8.4 mm
09:00 PM 45.3°F7.4°C 44.5°F6.9°C 97% 0.3 mph WNW0.5 kmh WNW 0.7 mph1.1 kmh 30.01 in1016.3 mb 0.00 in0.0 mm 0.00 in0.0 mm 0.33 in8.4 mm
09:15 PM 45.0°F7.2°C 44.2°F6.8°C 97% 0.3 mph W0.5 kmh W 0.7 mph1.1 kmh 30.01 in1016.3 mb 0.00 in0.0 mm 0.00 in0.0 mm 0.33 in8.4 mm
09:30 PM 44.8°F7.1°C 44.0°F6.7°C 97% 0.7 mph SW1.1 kmh SW 1.6 mph2.6 kmh 30.01 in1016.3 mb 0.00 in0.0 mm 0.00 in0.0 mm 0.33 in8.4 mm
09:45 PM 44.8°F7.1°C 44.0°F6.7°C 97% 0.7 mph SSW1.1 kmh SSW 1.6 mph2.6 kmh 30.02 in1016.6 mb 0.00 in0.0 mm 0.00 in0.0 mm 0.33 in8.4 mm
10:00 PM 44.6°F7.0°C 43.8°F6.6°C 97% 0.2 mph SW0.3 kmh SW 0.7 mph1.1 kmh 30.03 in1016.9 mb 0.00 in0.0 mm 0.00 in0.0 mm 0.33 in8.4 mm
10:30 PM 44.2°F6.8°C 43.7°F6.5°C 98% 0.1 mph S0.2 kmh S 0.7 mph1.1 kmh 30.03 in1016.9 mb 0.00 in0.0 mm 0.00 in0.0 mm 0.33 in8.4 mm
11:00 PM 43.7°F6.5°C 43.2°F6.2°C 98% 1.0 mph SW1.6 kmh SW 1.6 mph2.6 kmh 30.03 in1016.9 mb 0.00 in0.0 mm 0.00 in0.0 mm 0.28 in7.1 mm
11:15 PM 43.3°F6.3°C 42.8°F6.0°C 98% 1.0 mph SW1.6 kmh SW 2.2 mph3.5 kmh 30.04 in1017.3 mb 0.00 in0.0 mm 0.00 in0.0 mm 0.28 in7.1 mm
11:30 PM 43.0°F6.1°C 42.5°F5.8°C 98% 0.8 mph SE1.3 kmh SE 1.6 mph2.6 kmh 30.04 in1017.3 mb 0.00 in0.0 mm 0.00 in0.0 mm 0.28 in7.1 mm
11:45 PM 43.2°F6.2°C 42.6°F5.9°C 98% 1.0 mph W1.6 kmh W 3.1 mph5.0 kmh 30.04 in1017.3 mb 0.00 in0.0 mm 0.00 in0.0 mm 0.28 in7.1 mm